Mound, MN (55364)

5:19 PM CDT en Octubre 01, 2014 (GMT -0500)
Grandview | Change Station
CLOSE
Current Station
Estación meteorológica personal
Location: Mound, MN
Altura: 968 ft
Estaciones meteorológicas cercanas

Alt 968 ft 44.94 °N, 93.67 °W | Updated 4 seconds ago

Nublado
Nublado
57.4 ° F
Sensación térmica 57.4 ° F
N
1.0
Viento Variable Viento desde SE
Gusts 4.0 mph

Hoy
Alta -- | Baja -- ° F
--% Posibilidad de precipitaciones
Ayer
Alta -- | Baja -- ° F
Precip. -- pul
7:12 AM 6:55 PM
Cuarto creciente, 51% visible
Presión 29.77 pul
Visibilidad 8.0 Millas
Nubes Nublado 800 ft
Punto de rocío 55 ° F
Humedad 92%
Precipitaciones 0.18 pul
Espesor de la nieve No disponible.
UV 0 de una escala de 12
Polen .40 de una escala de 12
Ozono Buena
PM2.5 Buena
Flu Activity No disponible.
METAR KFCM 012153Z 15005KT 8SM OVC008 14/13 A2976 RMK AO2 SLP080 T01440128

More Conditions Fewer Conditions

Presión 29.77 pul
Visibilidad 8.0 Millas
Nubes Nublado 800 ft
Punto de rocío 55 ° F
Humedad 92%
Precipitaciones 0.18 pul
Espesor de la nieve No disponible.
UV 0 de una escala de 12
Polen .40 de una escala de 12
Ozono Buena
PM2.5 Buena
Flu Activity No disponible.
METAR KFCM 012153Z 15005KT 8SM OVC008 14/13 A2976 RMK AO2 SLP080 T01440128

More Conditions Fewer Conditions

10-Day Weather Forecast

Almanac

Astronomía

Oct. 01, 2014 Salida Puesta
Hora real 7:12 AM CDT 6:55 PM CDT
Crepúsculo civil 6:43 AM CDT 7:24 PM CDT
Crepúsculo náutico 6:09 AM CDT 7:58 PM CDT
Crepúsculo astronómico 5:34 AM CDT 8:32 PM CDT
Luna 2:25 PM CDT Sin puesta de luna
Horas de luz 12h 40m
Horas de luz
11h 42m
Tomorrow will be 3m 6s shorter.
Cuarto creciente, 51% of the Moon is Illuminated
Hoy
Cuarto creciente
Oct 8
Luna llena
Oct 15
Cuarto menguante
Oct 23
Nueva
Oct 30
Cuarto creciente

Extremos de hoy

Máximos del estado Bajos del estado

Community

WunderPhotos

Upload Photos

1,758,058 ¡fotos cargadas!

WunderBlogs® & News

By Dr. Jeff Masters
Director of Meteorology, Weather Underground
By Kari Strenfel
Meteorologist, Weather Underground
By Christopher C. Burt
Weather Historian, Weather Underground
October 1, 2014
October 1, 2014
October 1, 2014

Nearby

Calidad del aire

  Calidad del aire Índice AQ Contaminante
Ayer Buena
OZONE
Ayer Buena
PM2.5
Real Buena
PM2.5
Real Buena
OZONE
Miércoles Buena
OZONE
Miércoles Buena
PM2.5
Jueves Buena
PM2.5
Jueves Buena
OZONE
Viernes Buena
OZONE
Viernes Buena
PM2.5
Sábado Buena
OZONE
Sábado Buena
PM2.5
Domingo Buena
OZONE
Domingo Buena
PM2.5
Lunes Buena
OZONE
Lunes Buena
PM2.5

Grosos de nieve

Estación Profundido Altura
No tenemos constancia de nieve nueva.

Actividad de terremotos

Ciudad Distance Mag. Tiempo y dato
No hay informes recientes de la actividad sísmica.
Magnitud mínima muestra es 2,5.

Temperaturas de aguas costeras

Lugar Temperatura
Sin partes meteorológicos de las estaciones

Estaciones meteorológicas cercanas